Time;durP1;ratioP1;P1;durP2;ratioP2;P2;SDS_P1;SDS_P2;PMS_P1;PMS_P2;Temp;Humidity;BMP_temperature;BMP_pressure;BME280_temperature;BME280_humidity;BME280_pressure;Samples;Min_cycle;Max_cycle;Signal;HPM_P1;HPM_P2
2023/01/31 00:00:52;;;;;;;12.93;2.97;;;3.00;99.90;;;;;;5215549;28;20449;-48
2023/01/31 00:03:22;;;;;;;13.47;3.00;;;3.20;99.90;;;;;;5218536;28;20583;-51
2023/01/31 00:05:53;;;;;;;33.43;4.60;;;3.20;99.90;;;;;;5226364;28;20576;-49
2023/01/31 00:08:24;;;;;;;27.03;3.90;;;3.10;99.90;;;;;;5223663;28;20336;-48
2023/01/31 00:10:58;;;;;;;17.53;3.10;;;3.10;99.90;;;;;;5221858;28;20614;-48
2023/01/31 00:13:28;;;;;;;11.10;3.23;;;3.00;99.90;;;;;;5221316;28;20263;-50
2023/01/31 00:15:59;;;;;;;39.17;4.40;;;3.10;99.90;;;;;;5224581;28;20567;-50
2023/01/31 00:18:31;;;;;;;16.87;4.10;;;3.10;99.90;;;;;;5205006;28;20681;-50
2023/01/31 00:21:08;;;;;;;13.33;3.37;;;3.00;99.90;;;;;;5224351;28;20472;-50
2023/01/31 00:23:41;;;;;;;11.13;3.00;;;3.00;99.90;;;;;;5226250;28;22159;-49
2023/01/31 00:26:19;;;;;;;25.40;4.13;;;3.00;99.90;;;;;;5206896;28;20437;-50
2023/01/31 00:28:52;;;;;;;22.70;4.20;;;3.10;99.90;;;;;;5203873;28;20530;-48
2023/01/31 00:31:25;;;;;;;21.50;3.50;;;3.00;99.90;;;;;;5191295;28;20468;-48
2023/01/31 00:33:56;;;;;;;15.23;3.73;;;3.10;99.90;;;;;;5206394;28;20434;-47
2023/01/31 00:36:29;;;;;;;27.30;4.43;;;3.00;99.90;;;;;;5205622;28;21056;-50
2023/01/31 00:39:02;;;;;;;26.80;3.23;;;3.00;99.90;;;;;;5209287;28;20441;-48
2023/01/31 00:41:34;;;;;;;15.73;3.23;;;3.00;99.90;;;;;;5224465;28;20465;-49
2023/01/31 00:44:05;;;;;;;12.50;2.60;;;3.00;99.90;;;;;;5224700;28;20564;-49
2023/01/31 00:46:36;;;;;;;17.90;3.90;;;3.10;99.90;;;;;;5226710;28;20524;-51
2023/01/31 00:49:07;;;;;;;17.00;3.30;;;3.00;99.90;;;;;;5222528;28;20429;-50
2023/01/31 00:51:37;;;;;;;19.80;3.23;;;3.00;99.90;;;;;;5205836;28;20225;-49
2023/01/31 00:54:08;;;;;;;21.03;4.00;;;3.10;99.90;;;;;;5211867;28;20175;-50
2023/01/31 00:56:39;;;;;;;8.10;2.60;;;3.10;99.90;;;;;;5223913;28;20183;-48
2023/01/31 00:59:10;;;;;;;22.93;3.33;;;3.20;99.90;;;;;;5221182;28;20183;-50
2023/01/31 01:01:41;;;;;;;9.00;3.13;;;3.30;99.90;;;;;;5212461;28;20214;-51
2023/01/31 01:04:12;;;;;;;13.73;3.30;;;3.30;99.90;;;;;;5204673;28;20438;-49
2023/01/31 01:06:43;;;;;;;15.50;3.17;;;3.40;99.90;;;;;;5220836;28;20446;-49
2023/01/31 01:09:13;;;;;;;13.03;3.63;;;3.50;99.90;;;;;;5200241;28;20171;-50
2023/01/31 01:11:44;;;;;;;15.40;3.27;;;3.50;99.90;;;;;;5222477;28;20293;-48
2023/01/31 01:14:15;;;;;;;16.90;3.93;;;3.50;99.90;;;;;;5223815;28;20202;-48
2023/01/31 01:16:46;;;;;;;10.60;3.10;;;3.60;99.90;;;;;;5207701;28;20495;-47
2023/01/31 01:19:18;;;;;;;14.07;3.00;;;3.60;99.90;;;;;;5224275;28;20202;-47
2023/01/31 01:21:49;;;;;;;18.17;2.90;;;3.80;99.90;;;;;;5188005;28;20211;-49
2023/01/31 01:24:20;;;;;;;17.10;2.73;;;3.70;99.90;;;;;;5214459;28;20763;-48
2023/01/31 01:26:51;;;;;;;16.67;3.17;;;3.70;99.90;;;;;;5205007;28;20179;-48
2023/01/31 01:29:21;;;;;;;14.57;3.30;;;3.70;99.90;;;;;;5203516;28;20517;-48
2023/01/31 01:31:52;;;;;;;10.27;2.73;;;3.70;99.90;;;;;;5205680;28;20219;-49
2023/01/31 01:34:23;;;;;;;6.23;1.97;;;3.70;99.90;;;;;;5199497;28;20180;-48
2023/01/31 01:36:53;;;;;;;10.60;3.37;;;3.80;99.90;;;;;;5205934;28;20245;-48
2023/01/31 01:39:24;;;;;;;19.27;2.87;;;3.80;99.90;;;;;;5223681;28;20187;-49
2023/01/31 01:41:55;;;;;;;12.50;2.50;;;3.90;99.90;;;;;;5215944;28;20218;-48
2023/01/31 01:44:48;;;;;;;12.60;2.97;;;3.80;99.90;;;;;;5223535;28;20439;-50
2023/01/31 01:47:31;;;;;;;10.03;2.13;;;3.80;99.90;;;;;;5203240;28;20180;-50
2023/01/31 01:50:38;;;;;;;27.43;2.60;;;3.70;99.90;;;;;;5215005;28;20430;-49
2023/01/31 01:53:19;;;;;;;6.73;2.40;;;3.80;99.90;;;;;;5161874;28;20497;-49
2023/01/31 01:55:56;;;;;;;8.00;1.93;;;3.80;99.90;;;;;;5223689;28;20489;-49
2023/01/31 01:58:38;;;;;;;10.50;2.70;;;3.70;99.90;;;;;;5221721;28;20913;-47
2023/01/31 02:01:12;;;;;;;9.60;2.80;;;3.70;99.90;;;;;;5201862;28;20485;-47
2023/01/31 02:03:46;;;;;;;14.97;3.27;;;3.80;99.90;;;;;;5190561;28;20835;-50
2023/01/31 02:06:17;;;;;;;15.00;2.60;;;3.80;99.90;;;;;;5207657;28;20452;-50
2023/01/31 02:08:48;;;;;;;10.40;2.70;;;3.70;99.90;;;;;;5203502;28;20433;-48
2023/01/31 02:11:28;;;;;;;9.47;2.77;;;3.70;99.90;;;;;;5211105;28;20480;-47
2023/01/31 02:14:07;;;;;;;5.80;2.10;;;3.80;99.90;;;;;;5221199;28;20525;-49
2023/01/31 02:16:38;;;;;;;11.13;2.33;;;3.80;99.90;;;;;;5203414;28;20429;-48
2023/01/31 02:19:35;;;;;;;16.10;2.40;;;3.80;99.90;;;;;;5219266;28;20953;-48
2023/01/31 02:22:17;;;;;;;14.03;2.57;;;3.70;99.90;;;;;;5205387;28;20219;-49
2023/01/31 02:25:00;;;;;;;30.10;2.60;;;3.80;99.90;;;;;;5217791;28;20421;-48
2023/01/31 02:27:36;;;;;;;6.33;2.20;;;3.80;99.90;;;;;;5203685;28;20512;-46
2023/01/31 02:30:19;;;;;;;14.07;3.20;;;3.80;99.90;;;;;;5202046;28;20441;-48
2023/01/31 02:33:08;;;;;;;10.67;2.37;;;3.80;99.90;;;;;;5201414;28;20461;-48
2023/01/31 02:35:57;;;;;;;13.73;3.27;;;3.80;99.90;;;;;;5219546;28;20442;-48
2023/01/31 02:38:40;;;;;;;10.27;2.50;;;3.80;99.90;;;;;;5219040;28;20484;-49
2023/01/31 02:41:13;;;;;;;11.93;3.40;;;3.80;99.90;;;;;;5204245;28;20740;-49
2023/01/31 02:47:14;;;;;;;7.53;2.40;;;3.80;99.90;;;;;;5216644;28;20461;-49
2023/01/31 02:50:19;;;;;;;11.20;3.03;;;3.90;99.90;;;;;;5213843;28;20495;-49
2023/01/31 02:53:02;;;;;;;9.53;2.73;;;3.80;99.90;;;;;;5177292;28;20887;-49
2023/01/31 02:58:38;;;;;;;12.53;3.10;;;3.70;99.90;;;;;;5204018;28;20424;-50
2023/01/31 03:01:14;;;;;;;20.83;2.40;;;3.50;99.90;;;;;;5216671;28;20557;-46
2023/01/31 03:03:45;;;;;;;5.90;1.97;;;3.30;99.90;;;;;;5204808;28;20430;-47
2023/01/31 03:06:21;;;;;;;4.63;2.40;;;3.30;99.90;;;;;;5225639;28;20448;-48
2023/01/31 03:09:20;;;;;;;18.93;2.13;;;3.10;99.90;;;;;;5201693;28;20452;-47
2023/01/31 03:12:05;;;;;;;11.30;2.37;;;3.00;99.90;;;;;;5205900;28;20472;-48
2023/01/31 03:14:58;;;;;;;18.50;2.90;;;2.90;99.90;;;;;;5203251;28;20446;-47
2023/01/31 03:17:44;;;;;;;17.80;2.43;;;2.90;99.90;;;;;;5205946;28;20441;-49
2023/01/31 03:20:28;;;;;;;19.60;2.40;;;2.80;99.90;;;;;;5195279;28;20452;-48
2023/01/31 03:23:07;;;;;;;13.43;2.90;;;2.70;99.90;;;;;;5218917;28;20469;-48
2023/01/31 03:25:38;;;;;;;13.30;2.47;;;2.70;99.90;;;;;;5214041;28;20442;-48
2023/01/31 03:28:14;;;;;;;9.93;1.60;;;2.70;99.90;;;;;;5219032;28;20429;-49
2023/01/31 03:30:58;;;;;;;15.30;1.90;;;2.70;99.90;;;;;;5214157;28;20437;-49
2023/01/31 03:33:34;;;;;;;18.20;3.07;;;2.60;99.90;;;;;;5211190;28;20433;-48
2023/01/31 03:36:26;;;;;;;8.20;1.93;;;2.70;99.90;;;;;;5222476;28;20484;-48
2023/01/31 03:39:04;;;;;;;8.70;1.50;;;2.60;99.90;;;;;;5219037;28;20504;-51
2023/01/31 03:41:56;;;;;;;15.30;3.57;;;2.60;99.90;;;;;;5218944;28;20787;-47
2023/01/31 03:44:45;;;;;;;10.80;2.10;;;2.50;99.90;;;;;;5211594;28;20517;-46
2023/01/31 03:47:24;;;;;;;18.13;2.53;;;2.50;99.90;;;;;;5206737;28;20441;-47
2023/01/31 03:49:58;;;;;;;8.47;2.27;;;2.50;99.90;;;;;;5206086;28;20456;-47
2023/01/31 03:52:37;;;;;;;5.50;2.10;;;2.50;99.90;;;;;;5225653;28;20444;-47
2023/01/31 03:55:16;;;;;;;9.40;2.47;;;2.50;99.90;;;;;;5206845;28;20568;-48
2023/01/31 03:57:52;;;;;;;8.13;1.80;;;2.60;99.90;;;;;;5202560;28;20524;-48
2023/01/31 04:00:25;;;;;;;15.93;2.43;;;2.40;99.90;;;;;;5205203;28;20968;-48
2023/01/31 04:03:09;;;;;;;7.30;1.60;;;2.40;99.90;;;;;;5204759;28;20477;-48
2023/01/31 04:05:40;;;;;;;16.00;2.60;;;2.30;99.90;;;;;;5224869;28;20938;-47
2023/01/31 04:08:11;;;;;;;18.73;2.80;;;2.30;99.90;;;;;;5223035;28;20429;-47
2023/01/31 04:10:42;;;;;;;16.10;3.33;;;2.20;99.90;;;;;;5225938;28;20233;-47
2023/01/31 04:13:13;;;;;;;4.70;1.83;;;2.30;99.90;;;;;;5209697;28;20449;-48
2023/01/31 04:15:43;;;;;;;8.80;2.50;;;2.30;99.90;;;;;;5206070;28;20425;-46
2023/01/31 04:18:14;;;;;;;12.70;2.27;;;2.30;99.90;;;;;;5220866;28;20718;-48
2023/01/31 04:20:45;;;;;;;15.03;2.53;;;2.30;99.90;;;;;;5199500;28;20265;-47
2023/01/31 04:23:17;;;;;;;7.87;2.70;;;2.30;99.90;;;;;;5222663;28;20213;-47
2023/01/31 04:25:48;;;;;;;11.30;2.53;;;2.20;99.90;;;;;;5221261;28;20670;-48
2023/01/31 04:28:18;;;;;;;12.90;2.77;;;2.30;99.90;;;;;;5208401;28;20434;-47
2023/01/31 04:30:53;;;;;;;12.63;2.07;;;2.30;99.90;;;;;;5207159;28;20183;-47
2023/01/31 04:33:24;;;;;;;10.70;3.07;;;2.30;99.90;;;;;;5198613;28;20237;-48
2023/01/31 04:35:55;;;;;;;13.23;2.93;;;2.20;99.90;;;;;;5211189;28;20952;-47
2023/01/31 04:38:25;;;;;;;19.33;2.63;;;2.10;99.90;;;;;;5187803;28;20233;-47
2023/01/31 04:40:56;;;;;;;18.33;3.73;;;2.10;99.90;;;;;;5224314;28;20314;-48
2023/01/31 04:43:27;;;;;;;24.97;2.90;;;2.10;99.90;;;;;;5226823;28;20180;-46
2023/01/31 04:45:57;;;;;;;14.87;2.80;;;2.10;99.90;;;;;;5213670;28;20209;-48
2023/01/31 04:48:28;;;;;;;17.10;2.80;;;2.10;99.90;;;;;;5229388;28;20186;-47
2023/01/31 04:50:58;;;;;;;8.63;2.03;;;2.10;99.90;;;;;;5209561;28;20251;-47
2023/01/31 04:53:29;;;;;;;21.10;2.07;;;2.10;99.90;;;;;;5223107;28;20719;-48
2023/01/31 04:56:00;;;;;;;16.43;2.90;;;2.10;99.90;;;;;;5227853;28;20201;-47
2023/01/31 04:58:31;;;;;;;10.57;2.30;;;2.20;99.90;;;;;;5206773;28;20539;-48
2023/01/31 05:01:02;;;;;;;12.17;2.60;;;2.20;99.90;;;;;;5207541;28;20195;-49
2023/01/31 05:03:32;;;;;;;14.13;2.23;;;2.20;99.90;;;;;;5209831;28;20438;-48
2023/01/31 05:06:03;;;;;;;13.90;2.67;;;2.20;99.90;;;;;;5222617;28;20179;-48
2023/01/31 05:08:34;;;;;;;12.63;2.60;;;2.20;99.90;;;;;;5212155;28;22879;-48
2023/01/31 05:11:05;;;;;;;12.50;2.50;;;2.20;99.90;;;;;;5203027;28;20221;-49
2023/01/31 05:13:40;;;;;;;14.60;3.27;;;2.30;99.90;;;;;;5226223;28;20266;-48
2023/01/31 05:16:11;;;;;;;18.87;3.93;;;2.20;99.90;;;;;;5222807;28;20421;-48
2023/01/31 05:18:41;;;;;;;9.33;2.30;;;2.40;99.90;;;;;;5200851;28;20520;-49
2023/01/31 05:21:12;;;;;;;6.93;2.60;;;2.40;99.90;;;;;;5216492;28;20557;-47
2023/01/31 05:23:43;;;;;;;17.67;2.73;;;2.40;99.90;;;;;;5209119;28;20221;-46
2023/01/31 05:26:14;;;;;;;4.60;2.07;;;2.40;99.90;;;;;;5206203;28;20229;-47
2023/01/31 05:28:44;;;;;;;11.53;2.40;;;2.40;99.90;;;;;;5226691;28;20183;-48
2023/01/31 05:31:15;;;;;;;11.17;2.47;;;2.30;99.90;;;;;;5217448;28;20214;-47
2023/01/31 05:33:47;;;;;;;9.00;2.20;;;2.30;99.90;;;;;;5224208;28;20210;-48
2023/01/31 05:36:18;;;;;;;9.87;2.77;;;2.30;99.90;;;;;;5206326;28;20203;-47
2023/01/31 05:38:49;;;;;;;4.83;1.60;;;2.40;99.90;;;;;;5222888;28;20437;-49
2023/01/31 05:41:20;;;;;;;14.90;3.10;;;2.50;99.90;;;;;;5201631;28;20711;-49
2023/01/31 05:43:50;;;;;;;17.27;2.50;;;2.50;99.90;;;;;;5201608;28;20436;-47
2023/01/31 05:46:21;;;;;;;9.53;2.73;;;2.70;99.90;;;;;;5205345;28;20183;-49
2023/01/31 05:48:52;;;;;;;11.17;3.00;;;2.70;99.90;;;;;;5217247;28;20229;-49
2023/01/31 05:51:22;;;;;;;20.10;3.60;;;2.80;99.90;;;;;;5210433;28;20233;-48
2023/01/31 05:53:53;;;;;;;9.83;2.70;;;2.90;99.90;;;;;;5221591;28;20220;-50
2023/01/31 05:56:24;;;;;;;19.80;2.60;;;3.00;99.90;;;;;;5212769;28;20187;-48
2023/01/31 05:58:55;;;;;;;16.20;3.00;;;3.00;99.90;;;;;;5222170;28;20437;-48
2023/01/31 06:01:26;;;;;;;10.80;2.57;;;3.10;99.90;;;;;;5215894;28;20215;-48
2023/01/31 06:03:57;;;;;;;6.03;2.13;;;3.20;99.90;;;;;;5218230;28;20258;-47
2023/01/31 06:06:27;;;;;;;15.47;3.00;;;3.20;99.90;;;;;;5188920;28;20525;-48
2023/01/31 06:08:58;;;;;;;15.23;3.10;;;3.30;99.90;;;;;;5212788;28;20615;-48
2023/01/31 06:11:29;;;;;;;15.10;2.87;;;3.30;99.90;;;;;;5221797;28;20218;-48
2023/01/31 06:14:01;;;;;;;19.27;3.10;;;3.40;99.90;;;;;;5222545;28;20198;-48
2023/01/31 06:16:32;;;;;;;12.50;2.70;;;3.40;99.90;;;;;;5222398;28;20457;-48
2023/01/31 06:19:02;;;;;;;20.70;3.17;;;3.40;99.90;;;;;;5213265;28;20199;-49
2023/01/31 06:21:33;;;;;;;16.43;2.30;;;3.40;99.90;;;;;;5220121;28;20706;-48
2023/01/31 06:24:04;;;;;;;13.10;2.77;;;3.40;99.90;;;;;;5223991;28;20191;-48
2023/01/31 06:26:35;;;;;;;13.63;2.60;;;3.40;99.90;;;;;;5216447;28;20602;-49
2023/01/31 06:29:07;;;;;;;9.53;2.00;;;3.50;99.90;;;;;;5224295;28;20422;-48
2023/01/31 06:31:38;;;;;;;15.83;2.97;;;3.50;99.90;;;;;;5223922;28;20238;-47
2023/01/31 06:34:08;;;;;;;17.43;2.20;;;3.60;99.90;;;;;;5215111;28;20461;-49
2023/01/31 06:36:39;;;;;;;9.33;2.73;;;3.50;99.90;;;;;;5212717;28;20651;-49
2023/01/31 06:39:14;;;;;;;20.67;3.43;;;3.50;99.90;;;;;;5224032;28;20186;-50
2023/01/31 06:41:44;;;;;;;18.83;4.17;;;3.50;99.90;;;;;;5218652;28;20202;-49
2023/01/31 06:44:15;;;;;;;17.50;3.43;;;3.70;99.90;;;;;;5223487;28;20448;-49
2023/01/31 06:46:45;;;;;;;30.63;4.00;;;3.50;99.90;;;;;;5210228;28;20190;-49
2023/01/31 06:49:16;;;;;;;11.67;3.00;;;3.70;99.90;;;;;;5208938;28;20289;-49
2023/01/31 06:51:47;;;;;;;18.00;3.60;;;3.70;99.90;;;;;;5222493;28;20568;-48
2023/01/31 06:54:17;;;;;;;7.20;2.50;;;3.70;99.90;;;;;;5222277;28;20188;-49
2023/01/31 06:56:48;;;;;;;16.40;3.03;;;3.60;99.90;;;;;;5210528;28;20217;-48
2023/01/31 06:59:19;;;;;;;33.13;3.80;;;3.70;99.90;;;;;;5222798;28;20551;-48
2023/01/31 07:01:49;;;;;;;5.90;2.57;;;3.80;99.90;;;;;;5210799;28;20238;-49
2023/01/31 07:04:20;;;;;;;14.20;3.07;;;3.80;99.90;;;;;;5211305;28;20604;-49
2023/01/31 07:06:51;;;;;;;18.27;2.70;;;3.80;99.90;;;;;;5230808;28;20651;-48
2023/01/31 07:09:22;;;;;;;6.63;2.50;;;3.80;99.90;;;;;;5207306;28;20310;-49
2023/01/31 07:11:53;;;;;;;24.70;3.27;;;3.80;99.90;;;;;;5216094;28;20257;-48
2023/01/31 07:14:24;;;;;;;5.43;2.27;;;3.80;99.90;;;;;;5210326;28;20438;-49
2023/01/31 07:16:54;;;;;;;13.70;3.20;;;3.90;99.90;;;;;;5221090;28;20190;-50
2023/01/31 07:19:25;;;;;;;27.07;3.97;;;3.90;99.90;;;;;;5224011;28;20190;-48
2023/01/31 07:21:56;;;;;;;6.63;2.23;;;3.90;99.90;;;;;;5208824;28;20963;-50
2023/01/31 07:24:26;;;;;;;10.97;2.27;;;4.00;99.90;;;;;;5212737;28;20219;-48
2023/01/31 07:26:57;;;;;;;10.30;2.90;;;4.00;99.90;;;;;;5221057;28;20191;-49
2023/01/31 07:29:27;;;;;;;5.97;2.63;;;4.00;99.90;;;;;;5209528;28;20186;-51
2023/01/31 07:31:58;;;;;;;19.40;4.07;;;4.00;99.90;;;;;;5218837;28;20203;-48
2023/01/31 07:34:29;;;;;;;14.43;2.63;;;4.20;99.90;;;;;;5218304;28;20188;-51
2023/01/31 07:37:00;;;;;;;14.23;2.70;;;4.00;99.90;;;;;;5216226;28;20187;-50
2023/01/31 07:39:30;;;;;;;10.67;3.17;;;4.00;99.90;;;;;;5212084;28;20192;-47
2023/01/31 07:42:01;;;;;;;13.60;3.20;;;3.90;99.90;;;;;;5218544;28;20469;-48
2023/01/31 07:44:32;;;;;;;11.00;3.10;;;4.00;99.90;;;;;;5197678;28;20192;-50
2023/01/31 07:47:03;;;;;;;8.67;2.73;;;4.20;99.90;;;;;;5214643;28;20661;-51
2023/01/31 07:49:33;;;;;;;13.47;3.40;;;4.10;99.90;;;;;;5217006;28;20184;-49
2023/01/31 07:52:04;;;;;;;19.80;3.20;;;4.10;99.90;;;;;;5198867;28;20313;-50
2023/01/31 07:54:34;;;;;;;8.93;3.20;;;4.10;99.90;;;;;;5204483;28;20189;-49
2023/01/31 07:57:05;;;;;;;8.70;3.47;;;4.20;99.90;;;;;;5213221;28;20237;-50
2023/01/31 07:59:36;;;;;;;6.20;3.27;;;4.20;99.90;;;;;;5207834;28;20198;-48
2023/01/31 08:05:03;;;;;;;12.93;3.47;;;4.20;99.90;;;;;;5215093;28;20187;-49
2023/01/31 08:07:34;;;;;;;19.20;3.53;;;4.30;99.90;;;;;;5196523;28;20470;-48
2023/01/31 08:10:05;;;;;;;21.63;3.00;;;4.30;99.90;;;;;;5219742;28;20959;-49
2023/01/31 08:12:35;;;;;;;15.80;3.70;;;4.50;99.90;;;;;;5196830;28;20217;-48
2023/01/31 08:15:06;;;;;;;12.30;3.30;;;4.50;99.90;;;;;;5214821;28;20560;-48
2023/01/31 08:17:37;;;;;;;12.57;2.93;;;4.50;99.90;;;;;;5219364;28;20196;-48
2023/01/31 08:20:08;;;;;;;10.93;2.63;;;4.50;99.90;;;;;;5216163;28;20496;-47
2023/01/31 08:22:39;;;;;;;5.50;1.90;;;4.60;99.90;;;;;;5215445;28;20551;-48
2023/01/31 08:25:10;;;;;;;8.83;2.73;;;4.70;99.90;;;;;;5199569;28;20485;-50
2023/01/31 08:27:40;;;;;;;11.93;2.97;;;4.60;99.90;;;;;;5204567;28;20185;-48
2023/01/31 08:30:11;;;;;;;14.30;3.30;;;4.70;99.90;;;;;;5219776;28;20248;-49
2023/01/31 08:32:42;;;;;;;19.20;2.93;;;4.70;99.90;;;;;;5201340;28;20218;-49
2023/01/31 08:35:12;;;;;;;14.20;3.63;;;4.70;99.90;;;;;;5215241;28;20448;-48
2023/01/31 08:37:43;;;;;;;9.43;2.73;;;4.70;99.90;;;;;;5221499;28;20200;-49
2023/01/31 08:40:14;;;;;;;11.57;3.20;;;4.60;99.90;;;;;;5223295;28;20222;-49
2023/01/31 08:42:53;;;;;;;7.23;2.90;;;4.50;99.90;;;;;;5202020;28;20600;-50
2023/01/31 08:45:24;;;;;;;17.67;2.43;;;4.50;99.90;;;;;;5217132;28;20226;-49
2023/01/31 08:47:56;;;;;;;11.00;2.80;;;4.60;99.90;;;;;;5212478;28;20546;-49
2023/01/31 08:50:29;;;;;;;9.47;2.60;;;4.60;99.90;;;;;;5224435;28;20204;-49
2023/01/31 08:53:02;;;;;;;8.70;2.17;;;4.70;99.90;;;;;;5197354;28;20975;-50
2023/01/31 08:55:35;;;;;;;13.33;4.07;;;4.70;99.90;;;;;;5215217;28;20525;-50
2023/01/31 08:58:05;;;;;;;12.77;3.00;;;4.70;99.90;;;;;;5220518;28;20440;-50
2023/01/31 09:00:36;;;;;;;15.27;3.37;;;4.80;99.90;;;;;;5199861;28;21089;-50
2023/01/31 09:03:13;;;;;;;14.20;3.50;;;4.80;99.90;;;;;;5219614;28;20209;-49
2023/01/31 09:05:44;;;;;;;8.20;3.40;;;4.80;99.90;;;;;;5221392;28;20231;-50
2023/01/31 09:08:14;;;;;;;11.20;2.90;;;4.90;99.90;;;;;;5225203;28;20497;-49
2023/01/31 09:10:55;;;;;;;9.00;3.10;;;4.90;99.90;;;;;;5225629;28;20480;-50
2023/01/31 09:13:27;;;;;;;10.27;3.43;;;4.80;99.90;;;;;;5221039;28;20597;-50
2023/01/31 09:16:04;;;;;;;17.97;2.87;;;4.80;99.90;;;;;;5215968;28;20542;-48
2023/01/31 09:18:37;;;;;;;6.83;2.70;;;4.90;99.90;;;;;;5215531;28;20526;-51
2023/01/31 09:21:20;;;;;;;16.37;3.73;;;4.90;99.90;;;;;;5200805;28;20467;-51
2023/01/31 09:23:56;;;;;;;12.80;2.80;;;4.90;99.90;;;;;;5197944;28;20448;-50
2023/01/31 09:26:27;;;;;;;19.73;2.70;;;4.90;99.90;;;;;;5202086;28;20444;-48
2023/01/31 09:29:00;;;;;;;14.50;2.40;;;4.90;99.90;;;;;;5222962;28;20432;-50
2023/01/31 09:31:30;;;;;;;14.93;2.73;;;4.90;99.90;;;;;;5214742;28;20244;-48
2023/01/31 09:34:01;;;;;;;12.03;2.03;;;5.00;99.90;;;;;;5205495;28;20475;-49
2023/01/31 09:36:31;;;;;;;19.93;3.43;;;5.10;99.90;;;;;;5219482;28;20307;-49
2023/01/31 09:39:02;;;;;;;11.73;2.50;;;5.10;99.90;;;;;;5203598;28;20200;-49
2023/01/31 09:42:09;;;;;;;18.10;3.63;;;5.20;99.90;;;;;;5219103;28;20689;-48
2023/01/31 09:44:43;;;;;;;21.03;3.40;;;5.20;99.90;;;;;;5224045;28;20197;-50
2023/01/31 09:47:39;;;;;;;11.90;2.77;;;5.20;99.90;;;;;;5217273;28;20440;-49
2023/01/31 09:50:13;;;;;;;16.23;3.63;;;5.30;99.90;;;;;;5201058;28;20458;-51
2023/01/31 09:52:44;;;;;;;27.43;4.07;;;5.50;99.90;;;;;;5216193;28;21056;-49
2023/01/31 09:55:17;;;;;;;17.80;3.70;;;5.60;99.90;;;;;;5218280;28;20459;-48
2023/01/31 09:58:01;;;;;;;10.63;4.27;;;5.70;99.90;;;;;;5218453;28;20183;-48
2023/01/31 10:00:42;;;;;;;17.10;3.43;;;5.80;99.90;;;;;;5201911;28;20441;-49
2023/01/31 10:03:19;;;;;;;26.17;3.07;;;6.00;99.90;;;;;;5203055;28;20476;-50
2023/01/31 10:06:08;;;;;;;21.67;3.60;;;6.10;99.90;;;;;;5218815;28;20437;-50
2023/01/31 10:08:57;;;;;;;8.70;1.90;;;6.10;99.90;;;;;;5202934;28;20454;-50
2023/01/31 10:11:33;;;;;;;16.40;2.30;;;6.10;99.90;;;;;;5219180;28;20963;-48
2023/01/31 10:14:20;;;;;;;12.07;3.03;;;6.20;99.90;;;;;;5223375;28;20757;-49
2023/01/31 10:17:00;;;;;;;14.70;2.90;;;6.20;99.90;;;;;;5220835;28;20502;-49
2023/01/31 10:19:53;;;;;;;9.10;2.60;;;6.10;99.90;;;;;;5202739;28;20604;-49
2023/01/31 10:22:42;;;;;;;14.73;3.23;;;6.10;99.90;;;;;;5220933;28;20469;-50
2023/01/31 10:25:37;;;;;;;8.70;2.40;;;6.20;99.90;;;;;;5220529;28;20501;-49
2023/01/31 10:28:30;;;;;;;11.40;3.00;;;6.10;99.90;;;;;;5217868;28;20555;-48
2023/01/31 10:31:19;;;;;;;8.93;3.67;;;6.20;99.90;;;;;;5198667;28;20460;-48
2023/01/31 10:34:23;;;;;;;9.67;3.47;;;6.00;99.90;;;;;;5206999;28;20442;-48
2023/01/31 10:37:15;;;;;;;23.27;4.60;;;5.90;99.90;;;;;;5214275;28;20430;-49
2023/01/31 10:39:50;;;;;;;6.77;3.30;;;5.90;99.90;;;;;;5218986;28;20463;-50
2023/01/31 10:42:27;;;;;;;11.97;2.63;;;6.00;99.90;;;;;;5212146;28;20465;-49
2023/01/31 10:45:20;;;;;;;9.20;2.67;;;5.90;99.90;;;;;;5215610;28;20988;-48
2023/01/31 10:47:55;;;;;;;21.73;2.80;;;5.80;99.90;;;;;;5212614;28;20804;-50
2023/01/31 10:50:33;;;;;;;19.33;2.80;;;5.90;99.90;;;;;;5199197;28;20436;-49
2023/01/31 10:53:12;;;;;;;11.10;3.50;;;6.00;99.90;;;;;;5217179;28;20497;-49
2023/01/31 10:56:01;;;;;;;6.83;2.63;;;6.10;99.90;;;;;;5214562;28;20445;-50
2023/01/31 10:58:34;;;;;;;12.60;2.57;;;6.20;99.90;;;;;;5199869;28;20548;-48
2023/01/31 11:01:10;;;;;;;12.37;3.90;;;6.30;99.90;;;;;;5200201;28;20469;-49
2023/01/31 11:03:50;;;;;;;7.70;2.70;;;6.40;99.90;;;;;;5202758;28;20460;-49
2023/01/31 11:06:22;;;;;;;9.47;2.63;;;6.60;99.90;;;;;;5214514;28;21127;-50
2023/01/31 11:08:59;;;;;;;27.60;3.37;;;6.60;99.90;;;;;;5198374;28;20440;-49
2023/01/31 11:11:30;;;;;;;12.57;3.47;;;6.60;99.90;;;;;;5192370;28;20479;-51
2023/01/31 11:14:10;;;;;;;20.33;4.07;;;6.60;99.90;;;;;;5200531;28;20803;-51
2023/01/31 11:16:41;;;;;;;13.30;3.50;;;6.80;99.90;;;;;;5201831;28;20179;-50
2023/01/31 11:19:39;;;;;;;11.90;3.17;;;6.70;99.90;;;;;;5216293;28;20920;-49
2023/01/31 11:22:21;;;;;;;16.10;3.97;;;6.70;99.90;;;;;;5222707;28;20231;-49
2023/01/31 11:24:53;;;;;;;17.73;5.83;;;6.60;99.90;;;;;;5203141;28;20440;-49
2023/01/31 11:27:39;;;;;;;13.77;3.40;;;6.30;99.90;;;;;;5221687;28;20487;-49
2023/01/31 11:30:30;;;;;;;18.03;4.00;;;6.40;99.90;;;;;;5202172;28;20429;-49
2023/01/31 11:33:01;;;;;;;18.33;6.00;;;6.40;99.90;;;;;;5204964;28;20464;-49
2023/01/31 11:35:33;;;;;;;26.23;4.27;;;6.40;99.90;;;;;;5221613;28;21107;-49
2023/01/31 11:38:10;;;;;;;21.63;4.50;;;6.60;99.90;;;;;;5217540;28;20441;-49
2023/01/31 11:40:40;;;;;;;26.50;4.90;;;6.50;99.90;;;;;;5211824;28;21029;-49
2023/01/31 11:43:24;;;;;;;21.70;4.50;;;6.50;99.90;;;;;;5193551;28;20487;-49
2023/01/31 11:46:01;;;;;;;32.50;10.03;;;6.40;99.90;;;;;;5215160;28;21075;-49
2023/01/31 11:48:43;;;;;;;14.13;3.63;;;6.40;99.90;;;;;;5214095;28;20941;-50
2023/01/31 11:51:29;;;;;;;26.73;7.93;;;6.40;99.90;;;;;;5195643;28;20568;-49
2023/01/31 11:54:03;;;;;;;34.80;13.30;;;6.40;99.90;;;;;;5196518;28;20759;-49
2023/01/31 11:56:36;;;;;;;10.00;4.70;;;6.40;99.90;;;;;;5182948;28;20581;-49
2023/01/31 11:59:12;;;;;;;6.10;3.80;;;6.30;99.90;;;;;;5222172;28;20523;-49
2023/01/31 12:01:47;;;;;;;37.33;10.07;;;6.40;99.90;;;;;;5225649;28;20898;-49
2023/01/31 12:04:25;;;;;;;21.77;4.63;;;6.30;99.90;;;;;;5224570;28;20531;-49
2023/01/31 12:07:03;;;;;;;21.27;4.60;;;6.30;99.90;;;;;;5205729;28;20449;-51
2023/01/31 12:09:42;;;;;;;17.40;6.20;;;6.30;99.90;;;;;;5205635;28;20514;-49
2023/01/31 12:12:26;;;;;;;25.83;5.70;;;6.20;99.90;;;;;;5209201;28;20544;-50
2023/01/31 12:15:04;;;;;;;19.23;6.53;;;6.30;99.90;;;;;;5214712;28;20473;-50
2023/01/31 12:17:44;;;;;;;10.70;4.43;;;6.30;99.90;;;;;;5196909;28;20453;-49
2023/01/31 12:20:22;;;;;;;17.70;4.97;;;6.10;99.90;;;;;;5225295;28;20483;-50
2023/01/31 12:23:09;;;;;;;19.10;5.07;;;5.80;99.90;;;;;;5224625;28;20468;-48
2023/01/31 12:25:46;;;;;;;19.93;4.53;;;5.60;99.90;;;;;;5219474;28;20484;-49
2023/01/31 12:28:41;;;;;;;12.03;4.40;;;5.50;99.90;;;;;;5218160;28;20433;-50
2023/01/31 12:31:34;;;;;;;29.50;6.43;;;5.40;99.90;;;;;;5203288;28;20476;-51
2023/01/31 12:34:17;;;;;;;15.53;4.87;;;5.30;99.90;;;;;;5200989;28;20433;-49
2023/01/31 12:36:57;;;;;;;16.33;3.43;;;5.20;99.90;;;;;;5218183;28;20455;-50
2023/01/31 12:39:47;;;;;;;16.03;4.47;;;5.20;99.90;;;;;;5224367;28;20440;-50
2023/01/31 12:42:36;;;;;;;9.10;3.97;;;5.20;99.90;;;;;;5215817;28;20568;-50
2023/01/31 12:45:31;;;;;;;15.23;4.53;;;5.20;99.90;;;;;;5224048;28;20443;-49
2023/01/31 12:48:12;;;;;;;26.10;5.43;;;5.10;99.90;;;;;;5220750;28;20528;-51
2023/01/31 12:51:04;;;;;;;21.57;4.70;;;5.10;99.90;;;;;;5220442;28;20448;-51
2023/01/31 12:53:56;;;;;;;10.97;3.90;;;5.00;99.90;;;;;;5222825;28;20456;-51
2023/01/31 12:56:41;;;;;;;9.50;4.17;;;5.00;99.90;;;;;;5214939;28;20874;-51
2023/01/31 12:59:38;;;;;;;9.50;3.80;;;5.00;99.90;;;;;;5218501;28;20454;-50
2023/01/31 13:02:36;;;;;;;15.93;4.80;;;5.00;99.90;;;;;;5199813;28;20477;-49
2023/01/31 13:05:14;;;;;;;15.83;5.77;;;4.90;99.90;;;;;;5217711;28;20431;-49
2023/01/31 13:07:51;;;;;;;22.00;6.37;;;4.80;99.90;;;;;;5218594;28;20439;-48
2023/01/31 13:10:38;;;;;;;12.00;5.30;;;4.80;99.90;;;;;;5222093;28;20452;-50
2023/01/31 13:13:21;;;;;;;18.90;6.10;;;4.90;99.90;;;;;;5204101;28;20530;-51
2023/01/31 13:16:19;;;;;;;15.43;6.00;;;4.80;99.90;;;;;;5200766;28;20793;-51
2023/01/31 13:18:53;;;;;;;11.60;5.40;;;4.70;99.90;;;;;;5219494;28;20438;-50
2023/01/31 13:21:28;;;;;;;14.40;4.00;;;4.70;99.90;;;;;;5203659;28;20509;-51
2023/01/31 13:24:18;;;;;;;23.57;6.10;;;4.70;99.90;;;;;;5218071;28;20532;-50
2023/01/31 13:26:58;;;;;;;27.43;5.40;;;4.80;99.90;;;;;;5189616;28;20445;-51
2023/01/31 13:29:37;;;;;;;18.83;6.10;;;4.80;99.90;;;;;;5220440;28;20728;-51
2023/01/31 13:32:31;;;;;;;19.63;6.73;;;4.70;99.90;;;;;;5218844;28;20543;-51
2023/01/31 13:35:18;;;;;;;5.03;4.50;;;4.80;99.90;;;;;;5222104;28;20447;-51
2023/01/31 13:37:53;;;;;;;23.23;6.00;;;4.70;99.90;;;;;;5205168;28;20440;-52
2023/01/31 13:40:31;;;;;;;25.57;6.50;;;4.70;99.90;;;;;;5218854;28;20451;-51
2023/01/31 13:43:10;;;;;;;18.20;6.73;;;4.60;99.90;;;;;;5199057;28;20559;-51